Time;durP1;ratioP1;P1;durP2;ratioP2;P2;SDS_P1;SDS_P2;PMS_P1;PMS_P2;Temp;Humidity;BMP_temperature;BMP_pressure;BME280_temperature;BME280_humidity;BME280_pressure;Samples;Min_cycle;Max_cycle;Signal;HPM_P1;HPM_P2
2023/08/29 00:01:26;;;;;;;5.40;2.42;;;30.30;47.70;;;;;;5051183;28;20032;-74
2023/08/29 00:03:55;;;;;;;3.80;2.38;;;30.30;47.60;;;;;;5056650;28;20089;-74
2023/08/29 00:06:21;;;;;;;2.88;2.35;;;30.30;47.80;;;;;;5070606;28;20052;-74
2023/08/29 00:08:46;;;;;;;8.00;2.95;;;30.30;47.80;;;;;;5069826;28;20033;-74
2023/08/29 00:11:12;;;;;;;8.43;3.08;;;30.30;47.80;;;;;;5056176;28;20037;-74
2023/08/29 00:13:38;;;;;;;4.72;2.72;;;30.30;47.50;;;;;;5050800;28;20036;-74
2023/08/29 00:16:05;;;;;;;4.60;2.53;;;30.30;47.90;;;;;;5051026;28;20116;-74
2023/08/29 00:18:31;;;;;;;4.35;2.58;;;30.40;47.90;;;;;;5050811;28;20044;-74
2023/08/29 00:20:57;;;;;;;7.20;2.83;;;30.30;48.00;;;;;;5050416;28;20048;-74
2023/08/29 00:23:23;;;;;;;6.50;2.85;;;30.30;47.70;;;;;;5051222;28;20033;-74
2023/08/29 00:25:52;;;;;;;5.78;2.97;;;30.30;48.00;;;;;;5050968;28;20546;-74
2023/08/29 00:28:18;;;;;;;2.55;2.30;;;30.40;47.40;;;;;;5050641;28;20365;-74
2023/08/29 00:30:44;;;;;;;4.57;2.67;;;30.20;47.40;;;;;;5049330;28;20091;-74
2023/08/29 00:33:11;;;;;;;2.70;2.42;;;30.30;47.60;;;;;;5050759;28;20043;-74
2023/08/29 00:35:39;;;;;;;8.93;3.13;;;30.30;48.00;;;;;;5049652;28;20036;-74
2023/08/29 00:38:05;;;;;;;5.20;2.55;;;30.30;48.00;;;;;;5051070;28;20028;-74
2023/08/29 00:40:32;;;;;;;3.38;2.53;;;30.30;47.90;;;;;;5049570;28;20136;-74
2023/08/29 00:43:02;;;;;;;5.72;3.00;;;30.20;47.70;;;;;;5052331;28;20207;-74
2023/08/29 00:45:32;;;;;;;3.58;2.53;;;30.10;48.20;;;;;;5052360;28;20045;-74
2023/08/29 00:48:00;;;;;;;7.47;2.92;;;30.20;48.20;;;;;;5051951;28;20089;-74
2023/08/29 00:50:26;;;;;;;6.40;2.65;;;30.20;48.30;;;;;;5052102;28;20552;-74
2023/08/29 00:53:04;;;;;;;3.33;2.55;;;30.30;48.40;;;;;;5052175;28;20370;-74
2023/08/29 00:55:33;;;;;;;6.40;2.80;;;30.30;48.30;;;;;;5035440;28;20041;-74
2023/08/29 00:58:01;;;;;;;3.90;2.88;;;30.30;47.70;;;;;;5052055;28;20537;-74
2023/08/29 01:00:29;;;;;;;3.90;2.65;;;30.30;48.40;;;;;;5051988;28;20053;-74
2023/08/29 01:02:56;;;;;;;4.03;3.13;;;30.20;48.50;;;;;;5051950;28;20076;-74
2023/08/29 01:05:23;;;;;;;8.00;3.00;;;30.30;48.50;;;;;;5035455;28;20094;-74
2023/08/29 01:07:51;;;;;;;4.75;2.90;;;30.30;48.60;;;;;;5051734;28;20045;-74
2023/08/29 01:10:20;;;;;;;3.25;2.70;;;30.30;48.60;;;;;;5051395;28;20041;-74
2023/08/29 01:12:57;;;;;;;4.43;2.75;;;30.30;48.60;;;;;;5054772;28;20124;-74
2023/08/29 01:15:29;;;;;;;3.75;2.80;;;30.30;48.70;;;;;;5054630;28;20064;-74
2023/08/29 01:18:01;;;;;;;4.65;2.80;;;30.30;48.70;;;;;;5054194;28;20033;-74
2023/08/29 01:20:30;;;;;;;7.18;3.00;;;30.30;48.70;;;;;;5052536;28;20128;-74
2023/08/29 01:23:26;;;;;;;6.60;3.03;;;30.30;48.70;;;;;;5053010;28;20087;-74
2023/08/29 01:26:16;;;;;;;3.47;2.67;;;30.20;48.70;;;;;;5052867;28;20044;-74
2023/08/29 01:28:44;;;;;;;2.95;2.47;;;30.30;48.70;;;;;;5054026;28;20043;-73
2023/08/29 01:31:11;;;;;;;4.72;2.50;;;30.30;48.70;;;;;;5054134;28;20128;-74
2023/08/29 01:33:42;;;;;;;7.00;3.10;;;30.30;48.70;;;;;;5036378;28;20052;-74
2023/08/29 01:36:08;;;;;;;3.60;2.53;;;30.30;48.60;;;;;;5052760;28;20032;-74
2023/08/29 01:38:34;;;;;;;5.25;3.20;;;30.20;48.70;;;;;;5052112;28;20056;-74
2023/08/29 01:41:00;;;;;;;4.07;2.47;;;30.30;48.50;;;;;;5053276;28;20044;-75
2023/08/29 01:43:26;;;;;;;5.47;2.67;;;30.30;48.60;;;;;;5053617;28;20032;-74
2023/08/29 01:45:52;;;;;;;5.55;2.80;;;30.30;48.60;;;;;;5054103;28;20025;-74
2023/08/29 01:48:18;;;;;;;5.63;2.65;;;30.30;48.90;;;;;;5053668;28;20123;-74
2023/08/29 01:50:45;;;;;;;2.53;2.25;;;30.20;49.00;;;;;;5052191;28;20123;-74
2023/08/29 01:53:11;;;;;;;5.85;2.55;;;30.30;49.00;;;;;;5051247;28;20029;-74
2023/08/29 01:55:38;;;;;;;2.75;2.45;;;30.30;49.10;;;;;;5053653;28;20032;-74
2023/08/29 01:58:06;;;;;;;3.05;2.70;;;30.20;49.10;;;;;;5052057;28;20044;-74
2023/08/29 02:00:32;;;;;;;6.63;2.90;;;30.20;49.10;;;;;;5051196;28;20112;-74
2023/08/29 02:02:58;;;;;;;3.53;2.90;;;30.20;49.10;;;;;;5052773;28;20484;-74
2023/08/29 02:05:24;;;;;;;8.52;2.53;;;30.30;49.20;;;;;;5052901;28;20029;-74
2023/08/29 02:07:51;;;;;;;3.72;2.55;;;30.20;49.20;;;;;;5053174;28;20032;-74
2023/08/29 02:10:17;;;;;;;5.32;3.10;;;30.30;49.20;;;;;;5052259;28;20041;-74
2023/08/29 02:12:43;;;;;;;4.55;2.63;;;30.30;49.20;;;;;;5070527;28;20392;-74
2023/08/29 02:15:09;;;;;;;4.38;2.83;;;30.40;49.20;;;;;;5073284;28;20036;-74
2023/08/29 02:17:38;;;;;;;3.60;2.72;;;30.30;49.30;;;;;;5054853;28;20453;-74
2023/08/29 02:20:09;;;;;;;3.60;3.30;;;30.30;49.30;;;;;;5052776;28;20112;-74
2023/08/29 02:22:36;;;;;;;5.85;2.97;;;30.20;49.30;;;;;;5052892;28;20129;-74
2023/08/29 02:25:04;;;;;;;3.35;2.55;;;30.20;49.30;;;;;;5051869;28;20033;-74
2023/08/29 02:27:32;;;;;;;3.45;2.80;;;30.20;49.30;;;;;;5051625;28;20491;-74
2023/08/29 02:29:58;;;;;;;6.07;3.00;;;30.20;49.30;;;;;;5051151;28;20037;-74
2023/08/29 02:32:26;;;;;;;3.20;2.90;;;30.30;49.30;;;;;;5052186;28;20112;-74
2023/08/29 02:34:51;;;;;;;7.10;2.80;;;30.10;49.30;;;;;;5066075;28;20521;-74
2023/08/29 02:37:17;;;;;;;5.70;2.58;;;30.30;49.30;;;;;;5052215;28;20029;-74
2023/08/29 02:39:43;;;;;;;4.07;3.35;;;30.20;48.70;;;;;;5052009;28;20468;-74
2023/08/29 02:42:09;;;;;;;4.63;3.28;;;30.20;48.20;;;;;;5052536;28;20477;-74
2023/08/29 02:44:35;;;;;;;8.32;3.20;;;30.10;49.30;;;;;;5052457;28;20029;-74
2023/08/29 02:47:01;;;;;;;5.75;3.50;;;30.20;49.50;;;;;;5051422;28;20049;-74
2023/08/29 02:49:27;;;;;;;5.15;3.03;;;30.30;49.50;;;;;;5052240;28;20062;-74
2023/08/29 02:51:56;;;;;;;3.58;2.90;;;30.30;49.50;;;;;;5052632;28;20115;-74
2023/08/29 02:54:22;;;;;;;4.55;2.78;;;30.10;49.60;;;;;;5052443;28;20032;-74
2023/08/29 02:56:48;;;;;;;2.85;2.65;;;30.20;49.60;;;;;;5051138;28;20029;-74
2023/08/29 02:59:14;;;;;;;3.50;2.88;;;30.10;49.60;;;;;;5052264;28;20032;-74
2023/08/29 03:01:40;;;;;;;3.70;2.85;;;30.20;49.70;;;;;;5050656;28;20044;-74
2023/08/29 03:04:06;;;;;;;2.55;2.35;;;30.20;49.70;;;;;;5033803;28;20119;-74
2023/08/29 03:06:32;;;;;;;7.78;3.65;;;30.40;49.70;;;;;;5051869;28;20036;-74
2023/08/29 03:08:58;;;;;;;7.53;3.67;;;30.40;49.70;;;;;;5050657;28;20040;-74
2023/08/29 03:11:26;;;;;;;6.40;3.83;;;30.30;49.70;;;;;;5050190;28;20393;-74
2023/08/29 03:13:52;;;;;;;8.55;3.35;;;30.30;49.70;;;;;;5050663;28;20037;-74
2023/08/29 03:16:18;;;;;;;6.78;2.83;;;30.20;49.80;;;;;;5050218;28;20434;-74
2023/08/29 03:18:44;;;;;;;3.75;2.47;;;30.30;49.70;;;;;;5050599;28;20769;-74
2023/08/29 03:21:11;;;;;;;3.25;2.97;;;30.30;49.70;;;;;;5033958;28;20067;-74
2023/08/29 03:23:37;;;;;;;4.75;3.10;;;30.20;49.60;;;;;;5050760;28;20072;-74
2023/08/29 03:26:08;;;;;;;8.55;3.03;;;30.30;48.20;;;;;;5051954;28;20035;-74
2023/08/29 03:28:35;;;;;;;5.00;2.70;;;30.10;49.60;;;;;;5051790;28;20388;-74
2023/08/29 03:31:12;;;;;;;7.10;2.95;;;30.20;49.70;;;;;;5050017;28;20021;-74
2023/08/29 03:33:42;;;;;;;4.15;3.65;;;30.30;49.70;;;;;;5050552;28;20473;-74
2023/08/29 03:36:09;;;;;;;6.38;3.40;;;30.10;49.70;;;;;;5048795;28;20043;-74
2023/08/29 03:38:37;;;;;;;8.10;3.17;;;30.20;49.70;;;;;;5032681;28;20049;-74
2023/08/29 03:41:04;;;;;;;4.65;2.50;;;30.10;49.80;;;;;;5048806;28;20140;-74
2023/08/29 03:43:33;;;;;;;3.50;3.20;;;30.20;49.90;;;;;;5032549;28;20067;-74
2023/08/29 03:46:01;;;;;;;4.10;2.97;;;30.00;50.00;;;;;;5049215;28;20040;-74
2023/08/29 03:48:27;;;;;;;5.20;2.83;;;30.00;50.00;;;;;;5048862;28;20544;-74
2023/08/29 03:50:53;;;;;;;3.78;2.63;;;30.00;50.00;;;;;;5032379;28;20041;-74
2023/08/29 03:53:19;;;;;;;3.83;2.50;;;30.20;50.00;;;;;;5028688;28;20044;-74
2023/08/29 03:55:46;;;;;;;2.30;2.10;;;30.00;50.00;;;;;;5012719;28;20056;-74
2023/08/29 03:58:14;;;;;;;2.13;2.03;;;30.10;50.00;;;;;;5028970;28;20045;-74
2023/08/29 04:00:44;;;;;;;1.98;1.83;;;30.10;50.00;;;;;;5028539;28;20535;-74
2023/08/29 04:03:10;;;;;;;2.08;1.88;;;30.10;50.00;;;;;;5028318;28;20509;-74
2023/08/29 04:05:39;;;;;;;2.70;2.50;;;30.10;49.70;;;;;;5028915;28;20044;-74
2023/08/29 04:08:06;;;;;;;2.90;2.65;;;30.00;49.20;;;;;;5046364;28;20049;-75
2023/08/29 04:10:39;;;;;;;8.85;3.30;;;30.10;48.60;;;;;;5048892;28;20068;-75
2023/08/29 04:13:06;;;;;;;3.63;2.85;;;30.20;48.10;;;;;;5031793;28;20067;-75
2023/08/29 04:15:35;;;;;;;3.90;2.85;;;30.10;47.60;;;;;;5015072;28;20029;-75
2023/08/29 04:18:02;;;;;;;3.67;3.35;;;30.00;47.20;;;;;;5048788;28;20048;-73
2023/08/29 04:20:29;;;;;;;4.25;2.75;;;30.00;46.60;;;;;;5034375;28;20135;-73
2023/08/29 04:22:57;;;;;;;3.72;3.42;;;30.10;46.60;;;;;;5031998;28;20849;-70
2023/08/29 04:25:26;;;;;;;3.85;3.10;;;30.20;47.80;;;;;;5050663;28;20037;-71
2023/08/29 04:27:53;;;;;;;3.70;2.95;;;30.50;49.70;;;;;;5049411;28;20060;-71
2023/08/29 04:30:19;;;;;;;6.85;3.20;;;30.70;51.20;;;;;;5050393;28;20750;-71
2023/08/29 04:32:47;;;;;;;8.90;3.60;;;30.90;52.40;;;;;;5049622;28;20374;-73
2023/08/29 04:35:14;;;;;;;3.67;3.15;;;30.80;47.40;;;;;;5050856;28;20076;-73
2023/08/29 04:37:44;;;;;;;6.18;3.08;;;30.80;46.70;;;;;;5050442;28;20825;-72
2023/08/29 04:40:10;;;;;;;5.68;4.07;;;30.70;47.00;;;;;;5032848;28;20856;-72
2023/08/29 04:42:37;;;;;;;3.50;3.20;;;30.50;47.10;;;;;;5051175;28;20048;-72
2023/08/29 04:45:04;;;;;;;5.43;3.20;;;30.40;47.70;;;;;;5033204;28;20116;-72
2023/08/29 04:47:30;;;;;;;6.32;3.13;;;30.50;48.00;;;;;;5049073;28;20091;-72
2023/08/29 04:49:56;;;;;;;10.27;3.30;;;30.50;48.20;;;;;;5049620;28;20079;-73
2023/08/29 04:52:22;;;;;;;7.60;3.60;;;30.40;48.20;;;;;;5068027;28;20538;-72
2023/08/29 04:54:48;;;;;;;3.90;3.30;;;30.40;48.30;;;;;;5051499;28;20053;-72
2023/08/29 04:57:16;;;;;;;4.25;3.47;;;30.40;48.50;;;;;;5067831;28;20523;-73
2023/08/29 04:59:42;;;;;;;4.80;3.13;;;30.40;48.80;;;;;;5051349;28;20534;-72
2023/08/29 05:02:08;;;;;;;3.63;3.13;;;30.40;49.10;;;;;;5050802;28;20510;-72
2023/08/29 05:04:35;;;;;;;3.22;2.58;;;30.40;49.20;;;;;;5051363;28;20091;-75
2023/08/29 05:07:01;;;;;;;6.50;3.45;;;30.40;49.20;;;;;;5051070;28;20036;-73
2023/08/29 05:09:27;;;;;;;4.07;3.13;;;30.40;48.30;;;;;;5051158;28;20040;-73
2023/08/29 05:11:53;;;;;;;7.35;3.38;;;30.40;48.20;;;;;;5051313;28;20036;-73
2023/08/29 05:14:19;;;;;;;8.85;3.55;;;30.40;47.30;;;;;;5051627;28;20039;-73
2023/08/29 05:16:46;;;;;;;5.18;3.30;;;30.40;46.70;;;;;;5034838;28;20048;-70
2023/08/29 05:19:12;;;;;;;4.35;3.30;;;30.40;45.20;;;;;;5051201;28;20071;-69
2023/08/29 05:21:38;;;;;;;4.93;3.30;;;30.30;44.50;;;;;;5067959;28;20043;-70
2023/08/29 05:24:08;;;;;;;7.35;3.67;;;30.40;44.40;;;;;;5051181;28;20267;-70
2023/08/29 05:26:34;;;;;;;9.38;3.30;;;30.30;45.00;;;;;;5067844;28;20045;-71
2023/08/29 05:29:00;;;;;;;4.45;3.25;;;30.50;45.20;;;;;;5068397;28;20075;-70
2023/08/29 05:31:26;;;;;;;10.15;3.58;;;30.50;44.30;;;;;;5052195;28;20037;-70
2023/08/29 05:33:52;;;;;;;5.05;3.15;;;30.50;46.40;;;;;;5053651;28;20033;-71
2023/08/29 05:36:18;;;;;;;10.40;4.28;;;30.60;46.20;;;;;;5053602;28;20029;-70
2023/08/29 05:38:44;;;;;;;6.30;4.57;;;30.50;45.10;;;;;;5053685;28;20370;-70
2023/08/29 05:41:10;;;;;;;9.55;5.35;;;30.70;46.10;;;;;;5053510;28;20055;-70
2023/08/29 05:43:36;;;;;;;9.65;5.10;;;30.70;47.00;;;;;;5053682;28;20029;-71
2023/08/29 05:46:02;;;;;;;7.47;5.22;;;30.70;46.50;;;;;;5053792;28;20033;-70
2023/08/29 05:48:28;;;;;;;9.95;5.93;;;30.60;45.60;;;;;;5053282;28;20053;-70
2023/08/29 05:50:54;;;;;;;8.82;5.18;;;30.70;45.20;;;;;;5053528;28;20036;-72
2023/08/29 05:53:20;;;;;;;11.02;4.10;;;30.60;45.70;;;;;;5053486;28;20025;-70
2023/08/29 05:55:47;;;;;;;7.47;3.95;;;30.80;44.10;;;;;;5052678;28;20054;-70
2023/08/29 05:58:13;;;;;;;5.50;3.47;;;30.70;43.10;;;;;;5052944;28;20488;-70
2023/08/29 06:00:39;;;;;;;12.77;4.72;;;30.80;45.30;;;;;;5051071;28;20507;-72
2023/08/29 06:03:07;;;;;;;7.70;3.58;;;30.80;45.30;;;;;;5056462;28;20029;-73
2023/08/29 06:05:33;;;;;;;7.68;4.47;;;30.70;45.00;;;;;;5060338;28;20036;-74
2023/08/29 06:08:02;;;;;;;5.63;3.88;;;30.80;47.10;;;;;;5073152;28;20032;-74
2023/08/29 06:10:29;;;;;;;7.35;3.92;;;30.70;45.80;;;;;;5065794;28;20037;-72
2023/08/29 06:12:56;;;;;;;5.43;3.80;;;30.70;44.60;;;;;;5069449;28;20465;-72
2023/08/29 06:15:25;;;;;;;7.38;3.60;;;30.70;45.10;;;;;;5053160;28;20437;-71
2023/08/29 06:17:51;;;;;;;4.68;3.47;;;30.70;45.60;;;;;;5055122;28;20086;-71
2023/08/29 06:20:17;;;;;;;6.30;3.90;;;30.50;45.50;;;;;;5072843;28;20119;-70
2023/08/29 06:22:43;;;;;;;7.43;3.70;;;30.50;45.50;;;;;;5070522;28;20346;-72
2023/08/29 06:25:10;;;;;;;7.13;3.70;;;30.70;46.30;;;;;;5069788;28;20483;-72
2023/08/29 06:27:36;;;;;;;9.15;4.20;;;30.60;46.00;;;;;;5072932;28;20035;-72
2023/08/29 06:30:07;;;;;;;11.55;3.75;;;30.60;46.00;;;;;;5072938;28;20033;-74
2023/08/29 06:32:34;;;;;;;8.95;3.97;;;30.70;46.00;;;;;;5073140;28;20448;-73
2023/08/29 06:35:00;;;;;;;7.50;3.40;;;30.60;46.10;;;;;;5072661;28;20043;-74
2023/08/29 06:37:26;;;;;;;6.47;3.97;;;30.70;46.20;;;;;;5072199;28;20036;-74
2023/08/29 06:39:52;;;;;;;5.35;3.10;;;30.60;46.40;;;;;;5072588;28;20035;-74
2023/08/29 06:42:18;;;;;;;5.88;3.83;;;30.60;46.10;;;;;;5072516;28;20074;-73
2023/08/29 06:44:44;;;;;;;5.65;3.63;;;30.70;46.10;;;;;;5072483;28;20480;-73
2023/08/29 06:47:10;;;;;;;4.25;3.25;;;30.70;46.00;;;;;;5064321;28;20049;-74
2023/08/29 06:49:36;;;;;;;7.35;3.05;;;30.70;45.90;;;;;;5052462;28;20028;-76
2023/08/29 06:52:03;;;;;;;4.00;3.45;;;30.70;45.60;;;;;;5052538;28;20029;-75
2023/08/29 06:54:30;;;;;;;10.07;4.20;;;30.70;45.80;;;;;;5052421;28;20029;-76
2023/08/29 06:56:56;;;;;;;8.35;4.03;;;30.60;45.90;;;;;;5052100;28;20481;-76
2023/08/29 06:59:22;;;;;;;3.95;3.30;;;30.70;46.00;;;;;;5052160;28;20033;-75
2023/08/29 07:01:48;;;;;;;4.63;3.65;;;30.70;46.10;;;;;;5050952;28;20044;-74
2023/08/29 07:04:14;;;;;;;6.22;2.97;;;30.80;46.20;;;;;;5052134;28;20404;-75
2023/08/29 07:06:40;;;;;;;4.45;3.72;;;30.80;46.30;;;;;;5050915;28;20047;-73
2023/08/29 07:09:07;;;;;;;3.88;3.22;;;30.80;46.50;;;;;;5054867;28;20107;-73
2023/08/29 07:11:33;;;;;;;5.22;2.92;;;30.80;46.60;;;;;;5071811;28;20051;-73
2023/08/29 07:13:59;;;;;;;4.57;3.08;;;30.90;46.30;;;;;;5072071;28;20404;-72
2023/08/29 07:16:25;;;;;;;3.58;3.05;;;30.70;46.00;;;;;;5070446;28;20036;-73
2023/08/29 07:18:51;;;;;;;6.45;3.22;;;30.70;45.80;;;;;;5070199;28;20127;-73
2023/08/29 07:21:17;;;;;;;6.78;3.72;;;30.60;45.30;;;;;;5071813;28;20120;-73
2023/08/29 07:23:43;;;;;;;4.30;3.10;;;30.60;44.70;;;;;;5070588;28;20503;-74
2023/08/29 07:26:09;;;;;;;4.25;3.38;;;30.70;44.50;;;;;;5071556;28;20028;-75
2023/08/29 07:28:36;;;;;;;3.92;3.45;;;30.60;43.90;;;;;;5070223;28;20044;-75
2023/08/29 07:31:02;;;;;;;5.38;3.13;;;30.50;43.40;;;;;;5071502;28;20051;-76
2023/08/29 07:33:29;;;;;;;7.28;3.67;;;30.60;42.90;;;;;;5071565;28;20036;-76
2023/08/29 07:35:55;;;;;;;4.90;3.03;;;30.50;41.10;;;;;;5071759;28;20464;-74
2023/08/29 07:38:22;;;;;;;6.47;3.47;;;30.50;41.80;;;;;;5071449;28;20050;-71
2023/08/29 07:40:48;;;;;;;4.80;3.53;;;30.50;42.10;;;;;;5071285;28;20052;-73
2023/08/29 07:43:15;;;;;;;7.38;3.53;;;30.40;42.70;;;;;;5071870;28;20045;-72
2023/08/29 07:45:42;;;;;;;4.05;3.25;;;30.40;43.30;;;;;;5071199;28;20052;-69
2023/08/29 07:48:08;;;;;;;4.82;3.10;;;30.50;43.50;;;;;;5071503;28;20076;-72
2023/08/29 07:50:34;;;;;;;5.13;3.10;;;30.40;43.90;;;;;;5056701;28;20598;-76
2023/08/29 07:52:59;;;;;;;5.10;3.03;;;30.40;43.40;;;;;;5050454;28;20036;-76
2023/08/29 07:55:25;;;;;;;3.88;3.40;;;30.60;43.10;;;;;;5050143;28;20032;-79
2023/08/29 07:57:52;;;;;;;3.97;3.10;;;30.50;42.50;;;;;;5050304;28;20026;-77
2023/08/29 08:00:18;;;;;;;4.00;3.40;;;30.60;42.30;;;;;;5049019;28;20556;-77
2023/08/29 08:02:44;;;;;;;6.93;3.85;;;30.50;42.20;;;;;;5050091;28;20033;-77
2023/08/29 08:05:12;;;;;;;4.68;3.25;;;30.50;42.10;;;;;;5069077;28;20125;-77
2023/08/29 08:07:43;;;;;;;7.05;3.45;;;30.60;41.70;;;;;;5070873;28;20055;-77
2023/08/29 08:10:10;;;;;;;2.63;2.40;;;30.50;41.60;;;;;;5071288;28;20069;-77
2023/08/29 08:12:40;;;;;;;4.63;2.47;;;30.50;41.30;;;;;;5071200;28;20115;-77
2023/08/29 08:15:09;;;;;;;2.90;2.00;;;30.40;41.50;;;;;;5071234;28;20103;-77
2023/08/29 08:17:36;;;;;;;3.08;2.78;;;30.30;41.20;;;;;;5071111;28;20166;-77
2023/08/29 08:20:08;;;;;;;5.97;3.67;;;30.50;40.80;;;;;;5071172;28;20045;-78
2023/08/29 08:22:38;;;;;;;4.15;3.10;;;30.50;41.70;;;;;;5071161;28;20178;-75
2023/08/29 08:25:04;;;;;;;5.60;3.67;;;30.50;42.40;;;;;;5071044;28;20477;-76
2023/08/29 08:27:30;;;;;;;30.65;7.15;;;30.40;42.10;;;;;;5069412;28;20399;-77
2023/08/29 08:29:57;;;;;;;4.55;3.70;;;30.40;43.10;;;;;;5070138;28;20095;-77
2023/08/29 08:32:23;;;;;;;4.35;3.15;;;30.50;44.40;;;;;;5070979;28;20346;-76
2023/08/29 08:34:49;;;;;;;4.25;2.95;;;30.70;43.30;;;;;;5070858;28;20396;-79
2023/08/29 08:37:15;;;;;;;3.25;2.63;;;30.70;42.40;;;;;;5070757;28;20062;-80
2023/08/29 08:39:41;;;;;;;4.32;3.25;;;30.70;41.10;;;;;;5070472;28;20150;-78
2023/08/29 08:42:10;;;;;;;4.10;2.75;;;30.60;40.70;;;;;;5070707;28;20372;-79
2023/08/29 08:44:37;;;;;;;3.03;2.65;;;30.60;40.70;;;;;;5071091;28;20051;-78
2023/08/29 08:47:05;;;;;;;3.72;3.13;;;30.70;40.40;;;;;;5071017;28;20515;-75
2023/08/29 08:49:31;;;;;;;3.53;3.22;;;30.50;40.00;;;;;;5070472;28;20492;-74
2023/08/29 08:51:58;;;;;;;6.60;4.75;;;30.70;42.40;;;;;;5070914;28;20112;-76
2023/08/29 08:54:25;;;;;;;37.10;25.80;;;30.70;42.40;;;;;;5070479;28;20024;-77
2023/08/29 08:56:52;;;;;;;26.73;21.10;;;30.80;42.10;;;;;;5070647;28;20052;-76
2023/08/29 08:59:18;;;;;;;9.57;7.72;;;31.00;41.30;;;;;;5069298;28;20464;-76
2023/08/29 09:01:44;;;;;;;5.28;4.78;;;30.90;39.40;;;;;;5072979;28;20066;-76
2023/08/29 09:04:10;;;;;;;6.55;4.97;;;30.70;39.10;;;;;;5074427;28;20037;-76
2023/08/29 09:06:38;;;;;;;8.00;4.65;;;30.90;39.40;;;;;;5074331;28;20086;-76
2023/08/29 09:09:23;;;;;;;6.70;5.18;;;30.90;39.50;;;;;;5071469;28;20044;-76
2023/08/29 09:11:56;;;;;;;5.65;4.63;;;30.90;39.30;;;;;;5054470;28;20037;-76
2023/08/29 09:14:24;;;;;;;5.22;4.22;;;30.80;39.30;;;;;;5053153;28;20041;-76
2023/08/29 09:16:58;;;;;;;4.70;4.00;;;30.60;39.10;;;;;;5054357;28;20033;-75
2023/08/29 09:19:25;;;;;;;9.88;4.53;;;30.80;39.00;;;;;;5054052;28;20063;-75
2023/08/29 09:21:51;;;;;;;5.00;4.50;;;30.70;38.80;;;;;;5053980;28;20046;-76
2023/08/29 09:24:33;;;;;;;5.57;3.47;;;30.70;38.60;;;;;;5054081;28;20051;-75
2023/08/29 09:26:59;;;;;;;7.38;3.80;;;30.70;38.70;;;;;;5053907;28;20055;-73
2023/08/29 09:29:27;;;;;;;5.88;4.40;;;30.60;38.70;;;;;;5053596;28;20021;-72
2023/08/29 09:31:58;;;;;;;7.72;4.40;;;30.70;39.10;;;;;;5053682;28;20033;-73
2023/08/29 09:34:30;;;;;;;5.78;3.78;;;30.60;39.60;;;;;;5053795;28;20087;-73
2023/08/29 09:36:58;;;;;;;4.57;3.38;;;30.50;39.90;;;;;;5053620;28;20060;-73
2023/08/29 09:39:24;;;;;;;5.72;3.95;;;30.50;40.60;;;;;;5046240;28;20499;-72
2023/08/29 09:42:07;;;;;;;4.38;3.28;;;30.50;41.00;;;;;;5052211;28;20044;-74
2023/08/29 09:44:40;;;;;;;3.65;2.75;;;30.60;41.60;;;;;;5053729;28;20151;-73
2023/08/29 09:47:08;;;;;;;7.30;4.15;;;30.60;42.50;;;;;;5053370;28;20101;-71
2023/08/29 09:49:46;;;;;;;5.45;3.95;;;30.40;42.40;;;;;;5053760;28;20052;-71
2023/08/29 09:52:13;;;;;;;6.07;3.88;;;30.40;41.70;;;;;;5053604;28;20033;-71
2023/08/29 09:54:51;;;;;;;12.02;4.43;;;30.80;42.90;;;;;;5053365;28;20023;-70
2023/08/29 09:57:24;;;;;;;5.88;4.95;;;31.10;44.70;;;;;;5051514;28;20037;-71
2023/08/29 09:59:57;;;;;;;6.13;4.53;;;31.50;45.40;;;;;;5053201;28;20120;-71
2023/08/29 10:02:25;;;;;;;9.02;6.32;;;31.50;45.20;;;;;;5068887;28;20036;-72
2023/08/29 10:05:12;;;;;;;12.40;8.77;;;31.60;42.90;;;;;;5072140;28;20032;-72
2023/08/29 10:07:46;;;;;;;6.93;5.05;;;31.70;42.70;;;;;;5057188;28;20028;-73
2023/08/29 10:10:12;;;;;;;4.50;4.05;;;31.60;43.00;;;;;;5063275;28;20040;-70
2023/08/29 10:12:39;;;;;;;5.53;4.60;;;31.50;42.40;;;;;;5052281;28;20107;-70
2023/08/29 10:15:06;;;;;;;6.57;4.00;;;31.40;42.40;;;;;;5053189;28;20087;-70
2023/08/29 10:17:36;;;;;;;4.43;4.00;;;31.50;43.90;;;;;;5067372;28;20037;-71
2023/08/29 10:20:09;;;;;;;4.88;3.58;;;31.60;44.40;;;;;;5052954;28;20067;-76
2023/08/29 10:22:37;;;;;;;3.88;3.55;;;31.60;43.60;;;;;;5035539;28;20040;-76
2023/08/29 10:25:04;;;;;;;3.67;3.38;;;31.70;42.60;;;;;;5053222;28;20029;-76
2023/08/29 10:27:31;;;;;;;6.97;3.45;;;31.50;41.30;;;;;;5052901;28;20128;-77
2023/08/29 10:29:58;;;;;;;4.85;2.75;;;31.50;40.40;;;;;;5053082;28;20120;-77
2023/08/29 10:32:26;;;;;;;4.60;3.35;;;31.60;39.60;;;;;;5052679;28;20465;-77
2023/08/29 10:34:52;;;;;;;4.72;3.42;;;31.50;38.90;;;;;;5052782;28;20048;-75
2023/08/29 10:37:20;;;;;;;3.33;2.83;;;31.40;38.50;;;;;;5052941;28;20037;-79
2023/08/29 10:39:50;;;;;;;4.80;3.45;;;31.40;38.30;;;;;;5052537;28;20037;-78
2023/08/29 10:42:17;;;;;;;3.50;2.88;;;31.30;38.20;;;;;;5052532;28;20455;-78
2023/08/29 10:44:46;;;;;;;4.25;3.20;;;31.40;38.30;;;;;;5052782;28;20086;-77
2023/08/29 10:47:41;;;;;;;3.53;3.00;;;31.30;38.30;;;;;;5050064;28;20107;-76
2023/08/29 10:50:15;;;;;;;4.03;3.67;;;31.40;38.40;;;;;;5052325;28;20048;-77
2023/08/29 10:52:42;;;;;;;4.78;3.33;;;31.20;38.40;;;;;;5051163;28;20037;-77
2023/08/29 10:55:24;;;;;;;4.30;2.85;;;31.30;38.50;;;;;;5052609;28;20041;-77
2023/08/29 10:57:51;;;;;;;;;;;31.30;38.40;;;;;;5052861;28;20037;-77
2023/08/29 11:00:39;;;;;;;4.88;2.80;;;31.20;38.50;;;;;;5052157;28;19916;-76
2023/08/29 11:03:05;;;;;;;3.70;3.08;;;31.20;38.30;;;;;;5052514;28;20031;-77
2023/08/29 11:05:31;;;;;;;3.58;2.60;;;31.30;38.30;;;;;;5052425;28;20427;-77
2023/08/29 11:08:22;;;;;;;2.72;2.53;;;31.10;38.20;;;;;;5050924;28;20137;-77
2023/08/29 11:11:18;;;;;;;5.05;2.80;;;31.20;38.10;;;;;;5068806;28;20048;-76
2023/08/29 11:14:04;;;;;;;7.57;3.20;;;31.30;37.90;;;;;;5072017;28;20515;-76
2023/08/29 11:16:35;;;;;;;4.30;2.85;;;31.10;37.80;;;;;;5031905;28;20095;-75
2023/08/29 11:19:11;;;;;;;3.30;2.50;;;31.20;38.00;;;;;;5032006;28;20034;-75
2023/08/29 11:21:37;;;;;;;3.38;2.65;;;31.10;38.00;;;;;;5031967;28;20091;-75
2023/08/29 11:24:07;;;;;;;4.30;2.83;;;31.00;38.00;;;;;;5031747;28;20083;-76
2023/08/29 11:26:36;;;;;;;2.58;2.20;;;31.10;38.10;;;;;;5031867;28;20072;-76
2023/08/29 11:29:05;;;;;;;4.72;3.05;;;31.10;38.10;;;;;;5030547;28;20488;-76
2023/08/29 11:31:42;;;;;;;3.40;2.80;;;31.10;38.00;;;;;;5031910;28;20029;-75
2023/08/29 11:34:17;;;;;;;3.65;2.72;;;31.00;38.00;;;;;;5031790;28;20022;-76
2023/08/29 11:36:48;;;;;;;4.82;2.80;;;31.00;38.10;;;;;;5031712;28;20378;-75
2023/08/29 11:39:17;;;;;;;2.50;2.30;;;31.00;38.20;;;;;;5031566;28;20576;-77
2023/08/29 11:41:43;;;;;;;3.25;2.95;;;30.90;37.80;;;;;;5030415;28;20045;-75
2023/08/29 11:44:10;;;;;;;3.72;2.95;;;31.00;38.30;;;;;;5031805;28;20143;-75
2023/08/29 11:46:36;;;;;;;3.88;2.53;;;31.00;38.40;;;;;;5031302;28;20060;-75
2023/08/29 11:49:16;;;;;;;7.50;3.70;;;31.00;38.50;;;;;;5031567;28;20041;-72
2023/08/29 11:51:43;;;;;;;4.60;3.45;;;31.10;38.80;;;;;;5050668;28;20040;-73
2023/08/29 11:54:38;;;;;;;3.25;2.83;;;30.90;38.60;;;;;;5051506;28;20048;-73
2023/08/29 11:57:06;;;;;;;5.10;3.35;;;31.00;39.40;;;;;;5033312;28;20033;-74
2023/08/29 11:59:33;;;;;;;8.40;3.22;;;31.00;39.80;;;;;;5050750;28;20033;-74
2023/08/29 12:01:59;;;;;;;4.00;2.47;;;30.90;41.10;;;;;;5053318;28;20037;-76
2023/08/29 12:04:27;;;;;;;5.55;3.28;;;30.90;41.60;;;;;;5050963;28;20486;-74
2023/08/29 12:07:07;;;;;;;3.88;3.03;;;30.80;41.60;;;;;;5051247;28;20113;-74
2023/08/29 12:09:33;;;;;;;7.05;3.10;;;30.80;41.60;;;;;;5055956;28;20032;-75
2023/08/29 12:11:59;;;;;;;10.05;3.50;;;30.90;41.50;;;;;;5071242;28;20117;-76
2023/08/29 12:14:25;;;;;;;5.32;3.03;;;30.90;41.30;;;;;;5067627;28;20078;-76
2023/08/29 12:16:54;;;;;;;4.15;2.60;;;30.80;41.20;;;;;;5050685;28;20049;-75
2023/08/29 12:19:20;;;;;;;3.40;3.08;;;30.80;41.20;;;;;;5051262;28;20034;-76
2023/08/29 12:21:53;;;;;;;5.15;3.08;;;30.80;41.30;;;;;;5051119;28;20029;-76
2023/08/29 12:24:20;;;;;;;3.47;2.80;;;30.80;41.30;;;;;;5049672;28;20041;-77
2023/08/29 12:26:46;;;;;;;2.42;2.22;;;30.90;41.40;;;;;;5049700;28;20041;-75
2023/08/29 12:29:12;;;;;;;6.25;2.60;;;30.90;41.40;;;;;;5050858;28;20496;-75
2023/08/29 12:31:38;;;;;;;5.47;3.30;;;30.80;41.30;;;;;;5050882;28;20037;-75
2023/08/29 12:34:04;;;;;;;10.85;3.30;;;30.80;41.10;;;;;;5051227;28;20082;-75
2023/08/29 12:36:30;;;;;;;7.32;3.67;;;30.90;41.20;;;;;;5052431;28;20115;-76
2023/08/29 12:38:56;;;;;;;4.10;3.03;;;30.80;41.30;;;;;;5055062;28;20033;-76
2023/08/29 12:41:23;;;;;;;11.02;3.10;;;30.80;41.50;;;;;;5053686;28;20025;-73
2023/08/29 12:43:49;;;;;;;4.70;2.92;;;30.90;41.30;;;;;;5054680;28;20048;-76
2023/08/29 12:46:15;;;;;;;4.70;2.97;;;30.90;41.40;;;;;;5054677;28;20063;-74
2023/08/29 12:48:40;;;;;;;6.78;3.42;;;30.80;41.60;;;;;;5054334;28;20049;-72
2023/08/29 12:51:07;;;;;;;7.50;3.60;;;30.90;41.60;;;;;;5054553;28;20036;-69